sensor_id;sensor_type;location;lat;lon;timestamp;temperature;humidity
17421;DHT22;8828;48.800;9.540;2022-07-31T00:00:25;20.30;99.90
17421;DHT22;8828;48.800;9.540;2022-07-31T00:02:53;20.30;99.90
17421;DHT22;8828;48.800;9.540;2022-07-31T00:05:22;20.30;99.90
17421;DHT22;8828;48.800;9.540;2022-07-31T00:07:51;20.30;99.90
17421;DHT22;8828;48.800;9.540;2022-07-31T00:10:19;20.20;99.90
17421;DHT22;8828;48.800;9.540;2022-07-31T00:12:49;20.20;99.90
17421;DHT22;8828;48.800;9.540;2022-07-31T00:15:17;20.10;99.90
17421;DHT22;8828;48.800;9.540;2022-07-31T00:17:46;20.10;99.90
17421;DHT22;8828;48.800;9.540;2022-07-31T00:20:15;20.10;99.90
17421;DHT22;8828;48.800;9.540;2022-07-31T00:22:45;20.10;99.90
17421;DHT22;8828;48.800;9.540;2022-07-31T00:25:14;20.00;99.90
17421;DHT22;8828;48.800;9.540;2022-07-31T00:27:42;20.00;99.90
17421;DHT22;8828;48.800;9.540;2022-07-31T00:30:12;20.00;99.90
17421;DHT22;8828;48.800;9.540;2022-07-31T00:32:42;20.00;99.90
17421;DHT22;8828;48.800;9.540;2022-07-31T00:35:10;20.00;99.90
17421;DHT22;8828;48.800;9.540;2022-07-31T00:37:40;20.00;99.90
17421;DHT22;8828;48.800;9.540;2022-07-31T00:40:12;19.90;99.90
17421;DHT22;8828;48.800;9.540;2022-07-31T00:42:41;19.90;99.90
17421;DHT22;8828;48.800;9.540;2022-07-31T00:45:10;19.90;99.90
17421;DHT22;8828;48.800;9.540;2022-07-31T00:47:40;20.00;99.90
17421;DHT22;8828;48.800;9.540;2022-07-31T00:50:10;20.00;99.90
17421;DHT22;8828;48.800;9.540;2022-07-31T00:52:39;20.00;99.90
17421;DHT22;8828;48.800;9.540;2022-07-31T00:55:08;20.00;99.90
17421;DHT22;8828;48.800;9.540;2022-07-31T00:57:36;20.00;99.90
17421;DHT22;8828;48.800;9.540;2022-07-31T01:00:05;20.00;99.90
17421;DHT22;8828;48.800;9.540;2022-07-31T01:02:33;19.90;99.90
17421;DHT22;8828;48.800;9.540;2022-07-31T01:05:04;19.90;99.90
17421;DHT22;8828;48.800;9.540;2022-07-31T01:07:32;19.90;99.90
17421;DHT22;8828;48.800;9.540;2022-07-31T01:10:04;20.00;99.90
17421;DHT22;8828;48.800;9.540;2022-07-31T01:12:38;20.00;99.90
17421;DHT22;8828;48.800;9.540;2022-07-31T01:15:15;20.00;99.90
17421;DHT22;8828;48.800;9.540;2022-07-31T01:17:45;20.00;99.90
17421;DHT22;8828;48.800;9.540;2022-07-31T01:20:16;20.00;99.90
17421;DHT22;8828;48.800;9.540;2022-07-31T01:22:59;20.10;99.90
17421;DHT22;8828;48.800;9.540;2022-07-31T01:25:39;20.10;99.90
17421;DHT22;8828;48.800;9.540;2022-07-31T01:28:20;20.10;99.90
17421;DHT22;8828;48.800;9.540;2022-07-31T01:30:57;20.10;99.90
17421;DHT22;8828;48.800;9.540;2022-07-31T01:33:49;20.00;99.90
17421;DHT22;8828;48.800;9.540;2022-07-31T01:36:21;20.00;99.90
17421;DHT22;8828;48.800;9.540;2022-07-31T01:38:52;20.10;99.90
17421;DHT22;8828;48.800;9.540;2022-07-31T01:41:25;20.00;99.90
17421;DHT22;8828;48.800;9.540;2022-07-31T01:43:56;20.00;99.90
17421;DHT22;8828;48.800;9.540;2022-07-31T01:46:27;20.00;99.90
17421;DHT22;8828;48.800;9.540;2022-07-31T01:48:56;20.00;99.90
17421;DHT22;8828;48.800;9.540;2022-07-31T01:51:25;19.90;99.90
17421;DHT22;8828;48.800;9.540;2022-07-31T01:53:55;19.90;99.90
17421;DHT22;8828;48.800;9.540;2022-07-31T01:56:25;19.90;99.90
17421;DHT22;8828;48.800;9.540;2022-07-31T01:58:53;19.80;99.90
17421;DHT22;8828;48.800;9.540;2022-07-31T02:01:22;19.80;99.90
17421;DHT22;8828;48.800;9.540;2022-07-31T02:03:56;19.70;99.90
17421;DHT22;8828;48.800;9.540;2022-07-31T02:06:27;19.70;99.90
17421;DHT22;8828;48.800;9.540;2022-07-31T02:08:55;19.60;99.90
17421;DHT22;8828;48.800;9.540;2022-07-31T02:11:24;19.60;99.90
17421;DHT22;8828;48.800;9.540;2022-07-31T02:13:53;19.60;99.90
17421;DHT22;8828;48.800;9.540;2022-07-31T02:16:22;19.50;99.90
17421;DHT22;8828;48.800;9.540;2022-07-31T02:18:54;19.50;99.90
17421;DHT22;8828;48.800;9.540;2022-07-31T02:21:24;19.40;99.90
17421;DHT22;8828;48.800;9.540;2022-07-31T02:23:52;19.40;99.90
17421;DHT22;8828;48.800;9.540;2022-07-31T02:26:21;19.30;99.90
17421;DHT22;8828;48.800;9.540;2022-07-31T02:28:50;19.30;99.90
17421;DHT22;8828;48.800;9.540;2022-07-31T02:31:21;19.20;99.90
17421;DHT22;8828;48.800;9.540;2022-07-31T02:33:50;19.10;99.90
17421;DHT22;8828;48.800;9.540;2022-07-31T02:36:21;19.20;99.90
17421;DHT22;8828;48.800;9.540;2022-07-31T02:38:51;19.10;99.90
17421;DHT22;8828;48.800;9.540;2022-07-31T02:41:20;19.10;99.90
17421;DHT22;8828;48.800;9.540;2022-07-31T02:43:49;19.10;99.90
17421;DHT22;8828;48.800;9.540;2022-07-31T02:46:17;19.00;99.90
17421;DHT22;8828;48.800;9.540;2022-07-31T02:48:45;19.00;99.90
17421;DHT22;8828;48.800;9.540;2022-07-31T02:51:15;19.00;99.90
17421;DHT22;8828;48.800;9.540;2022-07-31T02:53:45;19.00;99.90
17421;DHT22;8828;48.800;9.540;2022-07-31T02:56:15;18.90;99.90
17421;DHT22;8828;48.800;9.540;2022-07-31T02:58:43;18.90;99.90
17421;DHT22;8828;48.800;9.540;2022-07-31T03:01:11;18.90;99.90
17421;DHT22;8828;48.800;9.540;2022-07-31T03:03:40;18.90;99.90
17421;DHT22;8828;48.800;9.540;2022-07-31T03:06:08;18.90;99.90
17421;DHT22;8828;48.800;9.540;2022-07-31T03:08:36;18.80;99.90
17421;DHT22;8828;48.800;9.540;2022-07-31T03:11:06;18.80;99.90
17421;DHT22;8828;48.800;9.540;2022-07-31T03:13:35;18.70;99.90
17421;DHT22;8828;48.800;9.540;2022-07-31T03:16:05;18.70;99.90
17421;DHT22;8828;48.800;9.540;2022-07-31T03:18:33;18.60;99.90
17421;DHT22;8828;48.800;9.540;2022-07-31T03:21:02;18.60;99.90
17421;DHT22;8828;48.800;9.540;2022-07-31T03:23:31;18.60;99.90
17421;DHT22;8828;48.800;9.540;2022-07-31T03:26:03;18.60;99.90
17421;DHT22;8828;48.800;9.540;2022-07-31T03:28:33;18.50;99.90
17421;DHT22;8828;48.800;9.540;2022-07-31T03:31:02;18.50;99.90
17421;DHT22;8828;48.800;9.540;2022-07-31T03:33:30;18.50;99.90
17421;DHT22;8828;48.800;9.540;2022-07-31T03:35:58;18.50;99.90
17421;DHT22;8828;48.800;9.540;2022-07-31T03:38:26;18.50;99.90
17421;DHT22;8828;48.800;9.540;2022-07-31T03:41:08;18.50;99.90
17421;DHT22;8828;48.800;9.540;2022-07-31T03:43:39;18.50;99.90
17421;DHT22;8828;48.800;9.540;2022-07-31T03:46:14;18.50;99.90
17421;DHT22;8828;48.800;9.540;2022-07-31T03:48:44;18.50;99.90
17421;DHT22;8828;48.800;9.540;2022-07-31T03:51:13;18.50;99.90
17421;DHT22;8828;48.800;9.540;2022-07-31T03:53:41;18.50;99.90
17421;DHT22;8828;48.800;9.540;2022-07-31T03:56:10;18.40;99.90
17421;DHT22;8828;48.800;9.540;2022-07-31T03:58:41;18.40;99.90
17421;DHT22;8828;48.800;9.540;2022-07-31T04:01:14;18.40;99.90
17421;DHT22;8828;48.800;9.540;2022-07-31T04:03:46;18.40;99.90
17421;DHT22;8828;48.800;9.540;2022-07-31T04:06:14;18.30;99.90
17421;DHT22;8828;48.800;9.540;2022-07-31T04:08:42;18.30;99.90
17421;DHT22;8828;48.800;9.540;2022-07-31T04:11:10;18.30;99.90
17421;DHT22;8828;48.800;9.540;2022-07-31T04:13:38;18.30;99.90
17421;DHT22;8828;48.800;9.540;2022-07-31T04:16:08;18.30;99.90
17421;DHT22;8828;48.800;9.540;2022-07-31T04:18:36;18.30;99.90
17421;DHT22;8828;48.800;9.540;2022-07-31T04:21:04;18.40;99.90
17421;DHT22;8828;48.800;9.540;2022-07-31T04:23:32;18.40;99.90
17421;DHT22;8828;48.800;9.540;2022-07-31T04:26:01;18.30;99.90
17421;DHT22;8828;48.800;9.540;2022-07-31T04:28:29;18.40;99.90
17421;DHT22;8828;48.800;9.540;2022-07-31T04:30:57;18.40;99.90
17421;DHT22;8828;48.800;9.540;2022-07-31T04:33:27;18.40;99.90
17421;DHT22;8828;48.800;9.540;2022-07-31T04:35:55;18.40;99.90
17421;DHT22;8828;48.800;9.540;2022-07-31T04:38:23;18.40;99.90
17421;DHT22;8828;48.800;9.540;2022-07-31T04:40:51;18.40;99.90
17421;DHT22;8828;48.800;9.540;2022-07-31T04:43:19;18.40;99.90
17421;DHT22;8828;48.800;9.540;2022-07-31T04:45:47;18.40;99.90
17421;DHT22;8828;48.800;9.540;2022-07-31T04:48:15;18.40;99.90
17421;DHT22;8828;48.800;9.540;2022-07-31T04:50:45;18.40;99.90
17421;DHT22;8828;48.800;9.540;2022-07-31T04:53:13;18.40;99.90
17421;DHT22;8828;48.800;9.540;2022-07-31T04:55:41;18.40;99.90
17421;DHT22;8828;48.800;9.540;2022-07-31T04:58:29;18.40;99.90
17421;DHT22;8828;48.800;9.540;2022-07-31T05:00:58;18.50;99.90
17421;DHT22;8828;48.800;9.540;2022-07-31T05:03:26;18.40;99.90
17421;DHT22;8828;48.800;9.540;2022-07-31T05:05:55;18.40;99.90
17421;DHT22;8828;48.800;9.540;2022-07-31T05:08:23;18.40;99.90
17421;DHT22;8828;48.800;9.540;2022-07-31T05:10:51;18.50;99.90
17421;DHT22;8828;48.800;9.540;2022-07-31T05:13:36;18.50;99.90
17421;DHT22;8828;48.800;9.540;2022-07-31T05:16:10;18.50;99.90
17421;DHT22;8828;48.800;9.540;2022-07-31T05:18:38;18.60;99.90
17421;DHT22;8828;48.800;9.540;2022-07-31T05:21:07;18.60;99.90
17421;DHT22;8828;48.800;9.540;2022-07-31T05:23:35;18.60;99.90
17421;DHT22;8828;48.800;9.540;2022-07-31T05:26:03;18.70;99.90
17421;DHT22;8828;48.800;9.540;2022-07-31T05:28:31;18.70;99.90
17421;DHT22;8828;48.800;9.540;2022-07-31T05:30:59;18.60;99.90
17421;DHT22;8828;48.800;9.540;2022-07-31T05:33:27;18.70;99.90
17421;DHT22;8828;48.800;9.540;2022-07-31T05:35:56;18.70;99.90
17421;DHT22;8828;48.800;9.540;2022-07-31T05:38:26;18.80;99.90
17421;DHT22;8828;48.800;9.540;2022-07-31T05:40:54;18.90;99.90
17421;DHT22;8828;48.800;9.540;2022-07-31T05:43:22;19.00;99.90
17421;DHT22;8828;48.800;9.540;2022-07-31T05:45:50;19.00;99.90
17421;DHT22;8828;48.800;9.540;2022-07-31T05:48:18;19.10;99.90
17421;DHT22;8828;48.800;9.540;2022-07-31T05:50:47;19.30;99.90
17421;DHT22;8828;48.800;9.540;2022-07-31T05:53:16;19.40;99.90
17421;DHT22;8828;48.800;9.540;2022-07-31T05:55:48;19.50;99.90
17421;DHT22;8828;48.800;9.540;2022-07-31T05:58:17;19.60;99.90
17421;DHT22;8828;48.800;9.540;2022-07-31T06:00:47;19.70;99.90
17421;DHT22;8828;48.800;9.540;2022-07-31T06:03:15;19.80;99.90
17421;DHT22;8828;48.800;9.540;2022-07-31T06:05:48;19.90;99.90
17421;DHT22;8828;48.800;9.540;2022-07-31T06:08:17;20.00;99.90
17421;DHT22;8828;48.800;9.540;2022-07-31T06:10:46;20.10;99.90
17421;DHT22;8828;48.800;9.540;2022-07-31T06:13:14;20.10;99.90
17421;DHT22;8828;48.800;9.540;2022-07-31T06:15:42;20.20;99.90
17421;DHT22;8828;48.800;9.540;2022-07-31T06:18:15;20.30;99.90
17421;DHT22;8828;48.800;9.540;2022-07-31T06:20:43;20.40;99.90
17421;DHT22;8828;48.800;9.540;2022-07-31T06:23:11;20.40;99.90
17421;DHT22;8828;48.800;9.540;2022-07-31T06:25:50;20.50;99.90
17421;DHT22;8828;48.800;9.540;2022-07-31T06:28:18;20.60;99.90
17421;DHT22;8828;48.800;9.540;2022-07-31T06:30:55;20.70;99.90
17421;DHT22;8828;48.800;9.540;2022-07-31T06:33:23;20.80;99.90
17421;DHT22;8828;48.800;9.540;2022-07-31T06:36:03;20.90;99.90
17421;DHT22;8828;48.800;9.540;2022-07-31T06:38:31;20.90;99.90
17421;DHT22;8828;48.800;9.540;2022-07-31T06:41:01;21.00;99.90
17421;DHT22;8828;48.800;9.540;2022-07-31T06:43:29;21.00;99.90
17421;DHT22;8828;48.800;9.540;2022-07-31T06:45:57;21.10;99.90
17421;DHT22;8828;48.800;9.540;2022-07-31T06:48:24;21.10;99.90
17421;DHT22;8828;48.800;9.540;2022-07-31T06:50:54;21.20;99.90
17421;DHT22;8828;48.800;9.540;2022-07-31T06:53:42;21.20;99.90
17421;DHT22;8828;48.800;9.540;2022-07-31T06:56:11;21.20;99.90
17421;DHT22;8828;48.800;9.540;2022-07-31T06:58:39;21.30;99.90
17421;DHT22;8828;48.800;9.540;2022-07-31T07:01:07;21.30;99.90
17421;DHT22;8828;48.800;9.540;2022-07-31T07:03:35;21.30;99.90
17421;DHT22;8828;48.800;9.540;2022-07-31T07:06:03;21.40;99.90
17421;DHT22;8828;48.800;9.540;2022-07-31T07:08:31;21.40;99.90
17421;DHT22;8828;48.800;9.540;2022-07-31T07:10:59;21.50;99.90
17421;DHT22;8828;48.800;9.540;2022-07-31T07:13:29;21.50;99.90
17421;DHT22;8828;48.800;9.540;2022-07-31T07:16:12;21.60;99.90
17421;DHT22;8828;48.800;9.540;2022-07-31T07:18:40;21.70;99.90
17421;DHT22;8828;48.800;9.540;2022-07-31T07:21:09;21.80;99.90
17421;DHT22;8828;48.800;9.540;2022-07-31T07:23:37;21.90;99.90
17421;DHT22;8828;48.800;9.540;2022-07-31T07:26:05;22.00;99.90
17421;DHT22;8828;48.800;9.540;2022-07-31T07:28:35;22.10;99.90
17421;DHT22;8828;48.800;9.540;2022-07-31T07:31:03;22.20;99.90
17421;DHT22;8828;48.800;9.540;2022-07-31T07:33:32;22.30;99.90
17421;DHT22;8828;48.800;9.540;2022-07-31T07:36:08;22.40;99.90
17421;DHT22;8828;48.800;9.540;2022-07-31T07:38:50;22.50;99.90
17421;DHT22;8828;48.800;9.540;2022-07-31T07:41:19;22.70;99.90
17421;DHT22;8828;48.800;9.540;2022-07-31T07:43:48;22.90;99.90
17421;DHT22;8828;48.800;9.540;2022-07-31T07:46:17;23.00;99.90
17421;DHT22;8828;48.800;9.540;2022-07-31T07:48:45;23.10;99.90
17421;DHT22;8828;48.800;9.540;2022-07-31T07:51:14;23.20;99.90
17421;DHT22;8828;48.800;9.540;2022-07-31T07:53:42;23.30;99.90
17421;DHT22;8828;48.800;9.540;2022-07-31T07:56:10;23.30;99.90
17421;DHT22;8828;48.800;9.540;2022-07-31T07:58:38;23.30;99.90
17421;DHT22;8828;48.800;9.540;2022-07-31T08:01:08;23.30;99.90
17421;DHT22;8828;48.800;9.540;2022-07-31T08:03:36;23.30;99.90
17421;DHT22;8828;48.800;9.540;2022-07-31T08:06:17;23.30;99.90
17421;DHT22;8828;48.800;9.540;2022-07-31T08:08:46;23.20;99.90
17421;DHT22;8828;48.800;9.540;2022-07-31T08:11:14;23.30;99.90
17421;DHT22;8828;48.800;9.540;2022-07-31T08:13:43;23.40;99.90
17421;DHT22;8828;48.800;9.540;2022-07-31T08:16:18;23.40;99.90
17421;DHT22;8828;48.800;9.540;2022-07-31T08:18:46;23.40;99.90
17421;DHT22;8828;48.800;9.540;2022-07-31T08:21:14;23.40;99.90
17421;DHT22;8828;48.800;9.540;2022-07-31T08:23:43;23.40;99.90
17421;DHT22;8828;48.800;9.540;2022-07-31T08:26:11;23.50;99.90
17421;DHT22;8828;48.800;9.540;2022-07-31T08:28:40;23.50;99.90
17421;DHT22;8828;48.800;9.540;2022-07-31T08:31:18;23.50;99.90
17421;DHT22;8828;48.800;9.540;2022-07-31T08:33:46;23.60;99.90
17421;DHT22;8828;48.800;9.540;2022-07-31T08:36:14;23.90;99.90
17421;DHT22;8828;48.800;9.540;2022-07-31T08:38:42;24.40;99.90
17421;DHT22;8828;48.800;9.540;2022-07-31T08:41:11;24.90;99.90
17421;DHT22;8828;48.800;9.540;2022-07-31T08:43:40;25.50;99.90
17421;DHT22;8828;48.800;9.540;2022-07-31T08:46:31;25.90;99.90
17421;DHT22;8828;48.800;9.540;2022-07-31T08:49:00;26.30;99.90
17421;DHT22;8828;48.800;9.540;2022-07-31T08:51:30;26.60;99.90
17421;DHT22;8828;48.800;9.540;2022-07-31T08:54:18;26.90;99.90
17421;DHT22;8828;48.800;9.540;2022-07-31T08:56:46;27.00;99.70
17421;DHT22;8828;48.800;9.540;2022-07-31T08:59:18;27.00;99.70
17421;DHT22;8828;48.800;9.540;2022-07-31T09:01:48;27.10;99.30
17421;DHT22;8828;48.800;9.540;2022-07-31T09:04:17;27.20;96.70
17421;DHT22;8828;48.800;9.540;2022-07-31T09:06:45;27.40;97.20
17421;DHT22;8828;48.800;9.540;2022-07-31T09:09:14;27.60;97.20
17421;DHT22;8828;48.800;9.540;2022-07-31T09:11:47;27.80;96.00
17421;DHT22;8828;48.800;9.540;2022-07-31T09:14:24;28.00;95.20
17421;DHT22;8828;48.800;9.540;2022-07-31T09:16:54;28.20;93.90
17421;DHT22;8828;48.800;9.540;2022-07-31T09:19:24;28.30;91.10
17421;DHT22;8828;48.800;9.540;2022-07-31T09:22:20;28.40;88.90
17421;DHT22;8828;48.800;9.540;2022-07-31T09:24:49;28.60;90.70
17421;DHT22;8828;48.800;9.540;2022-07-31T09:27:17;28.70;90.30
17421;DHT22;8828;48.800;9.540;2022-07-31T09:29:46;28.70;90.80
17421;DHT22;8828;48.800;9.540;2022-07-31T09:32:18;28.80;90.00
17421;DHT22;8828;48.800;9.540;2022-07-31T09:34:47;28.90;87.40
17421;DHT22;8828;48.800;9.540;2022-07-31T09:37:16;29.00;85.20
17421;DHT22;8828;48.800;9.540;2022-07-31T09:39:48;29.00;80.20
17421;DHT22;8828;48.800;9.540;2022-07-31T09:42:19;29.10;80.40
17421;DHT22;8828;48.800;9.540;2022-07-31T09:44:48;29.20;77.90
17421;DHT22;8828;48.800;9.540;2022-07-31T09:47:24;29.30;78.60
17421;DHT22;8828;48.800;9.540;2022-07-31T09:49:56;29.30;78.50
17421;DHT22;8828;48.800;9.540;2022-07-31T09:52:25;29.30;77.60
17421;DHT22;8828;48.800;9.540;2022-07-31T09:55:01;29.30;75.50
17421;DHT22;8828;48.800;9.540;2022-07-31T09:57:50;29.40;73.60
17421;DHT22;8828;48.800;9.540;2022-07-31T10:00:19;29.50;73.10
17421;DHT22;8828;48.800;9.540;2022-07-31T10:02:50;29.50;72.50
17421;DHT22;8828;48.800;9.540;2022-07-31T10:05:20;29.60;72.30
17421;DHT22;8828;48.800;9.540;2022-07-31T10:07:49;29.70;68.70
17421;DHT22;8828;48.800;9.540;2022-07-31T10:10:17;29.70;67.60
17421;DHT22;8828;48.800;9.540;2022-07-31T10:12:48;30.00;67.70
17421;DHT22;8828;48.800;9.540;2022-07-31T10:15:18;30.10;65.10
17421;DHT22;8828;48.800;9.540;2022-07-31T10:17:50;30.30;65.20
17421;DHT22;8828;48.800;9.540;2022-07-31T10:20:21;30.40;65.80
17421;DHT22;8828;48.800;9.540;2022-07-31T10:22:53;30.60;65.20
17421;DHT22;8828;48.800;9.540;2022-07-31T10:25:24;30.70;63.70
17421;DHT22;8828;48.800;9.540;2022-07-31T10:27:53;30.90;64.70
17421;DHT22;8828;48.800;9.540;2022-07-31T10:30:24;31.00;63.40
17421;DHT22;8828;48.800;9.540;2022-07-31T10:32:55;31.10;63.20
17421;DHT22;8828;48.800;9.540;2022-07-31T10:35:24;31.20;62.20
17421;DHT22;8828;48.800;9.540;2022-07-31T10:37:58;31.30;62.60
17421;DHT22;8828;48.800;9.540;2022-07-31T10:40:34;31.30;61.90
17421;DHT22;8828;48.800;9.540;2022-07-31T10:43:16;31.40;61.50
17421;DHT22;8828;48.800;9.540;2022-07-31T10:45:45;31.40;60.70
17421;DHT22;8828;48.800;9.540;2022-07-31T10:48:14;31.60;62.00
17421;DHT22;8828;48.800;9.540;2022-07-31T10:50:43;31.70;60.50
17421;DHT22;8828;48.800;9.540;2022-07-31T10:53:13;31.70;60.10
17421;DHT22;8828;48.800;9.540;2022-07-31T10:55:42;31.80;59.50
17421;DHT22;8828;48.800;9.540;2022-07-31T10:58:14;31.80;59.40
17421;DHT22;8828;48.800;9.540;2022-07-31T11:00:42;31.80;59.70
17421;DHT22;8828;48.800;9.540;2022-07-31T11:03:17;31.80;60.20
17421;DHT22;8828;48.800;9.540;2022-07-31T11:05:52;31.90;60.70
17421;DHT22;8828;48.800;9.540;2022-07-31T11:08:39;31.90;60.70
17421;DHT22;8828;48.800;9.540;2022-07-31T11:11:08;32.10;60.40
17421;DHT22;8828;48.800;9.540;2022-07-31T11:13:47;32.30;59.70
17421;DHT22;8828;48.800;9.540;2022-07-31T11:16:16;32.40;59.60
17421;DHT22;8828;48.800;9.540;2022-07-31T11:18:55;32.50;59.50
17421;DHT22;8828;48.800;9.540;2022-07-31T11:21:31;32.50;59.30
17421;DHT22;8828;48.800;9.540;2022-07-31T11:24:14;32.60;59.50
17421;DHT22;8828;48.800;9.540;2022-07-31T11:26:49;32.70;59.40
17421;DHT22;8828;48.800;9.540;2022-07-31T11:29:28;32.80;59.20
17421;DHT22;8828;48.800;9.540;2022-07-31T11:32:18;33.00;58.10
17421;DHT22;8828;48.800;9.540;2022-07-31T11:34:54;33.00;58.30
17421;DHT22;8828;48.800;9.540;2022-07-31T11:37:24;32.80;58.20
17421;DHT22;8828;48.800;9.540;2022-07-31T11:40:12;32.80;57.50
17421;DHT22;8828;48.800;9.540;2022-07-31T11:42:42;32.60;57.90
17421;DHT22;8828;48.800;9.540;2022-07-31T11:45:11;32.60;58.60
17421;DHT22;8828;48.800;9.540;2022-07-31T11:47:41;32.50;59.00
17421;DHT22;8828;48.800;9.540;2022-07-31T11:50:39;32.40;59.90
17421;DHT22;8828;48.800;9.540;2022-07-31T11:53:08;32.20;60.30
17421;DHT22;8828;48.800;9.540;2022-07-31T11:55:54;32.10;59.10
17421;DHT22;8828;48.800;9.540;2022-07-31T11:58:24;31.70;59.10
17421;DHT22;8828;48.800;9.540;2022-07-31T12:00:54;31.40;59.80
17421;DHT22;8828;48.800;9.540;2022-07-31T12:03:24;31.10;59.70
17421;DHT22;8828;48.800;9.540;2022-07-31T12:05:56;30.80;59.80
17421;DHT22;8828;48.800;9.540;2022-07-31T12:08:25;30.50;60.50
17421;DHT22;8828;48.800;9.540;2022-07-31T12:10:55;30.30;61.90
17421;DHT22;8828;48.800;9.540;2022-07-31T12:13:24;30.10;61.90
17421;DHT22;8828;48.800;9.540;2022-07-31T12:15:53;30.10;62.50
17421;DHT22;8828;48.800;9.540;2022-07-31T12:18:22;30.00;62.60
17421;DHT22;8828;48.800;9.540;2022-07-31T12:20:53;30.00;62.40
17421;DHT22;8828;48.800;9.540;2022-07-31T12:23:23;29.80;62.00
17421;DHT22;8828;48.800;9.540;2022-07-31T12:26:08;29.80;63.50
17421;DHT22;8828;48.800;9.540;2022-07-31T12:28:37;29.60;63.60
17421;DHT22;8828;48.800;9.540;2022-07-31T12:31:05;29.50;63.50
17421;DHT22;8828;48.800;9.540;2022-07-31T12:33:40;29.40;64.10
17421;DHT22;8828;48.800;9.540;2022-07-31T12:36:13;29.40;64.60
17421;DHT22;8828;48.800;9.540;2022-07-31T12:38:43;29.40;64.80
17421;DHT22;8828;48.800;9.540;2022-07-31T12:41:15;29.30;64.40
17421;DHT22;8828;48.800;9.540;2022-07-31T12:43:43;29.20;64.00
17421;DHT22;8828;48.800;9.540;2022-07-31T12:46:18;29.10;64.60
17421;DHT22;8828;48.800;9.540;2022-07-31T12:48:46;29.00;65.20
17421;DHT22;8828;48.800;9.540;2022-07-31T12:51:14;28.90;64.70
17421;DHT22;8828;48.800;9.540;2022-07-31T12:53:48;28.90;65.20
17421;DHT22;8828;48.800;9.540;2022-07-31T12:56:16;28.90;65.70
17421;DHT22;8828;48.800;9.540;2022-07-31T12:58:44;28.80;66.20
17421;DHT22;8828;48.800;9.540;2022-07-31T13:01:12;28.80;68.10
17421;DHT22;8828;48.800;9.540;2022-07-31T13:03:40;28.80;66.30
17421;DHT22;8828;48.800;9.540;2022-07-31T13:06:12;28.70;65.90
17421;DHT22;8828;48.800;9.540;2022-07-31T13:08:40;28.80;66.60
17421;DHT22;8828;48.800;9.540;2022-07-31T13:11:11;28.90;66.60
17421;DHT22;8828;48.800;9.540;2022-07-31T13:13:39;29.00;66.80
17421;DHT22;8828;48.800;9.540;2022-07-31T13:16:06;29.10;67.00
17421;DHT22;8828;48.800;9.540;2022-07-31T13:18:35;29.10;66.90
17421;DHT22;8828;48.800;9.540;2022-07-31T13:21:04;29.20;65.70
17421;DHT22;8828;48.800;9.540;2022-07-31T13:23:32;29.20;66.60
17421;DHT22;8828;48.800;9.540;2022-07-31T13:26:00;29.10;66.70
17421;DHT22;8828;48.800;9.540;2022-07-31T13:28:29;29.00;66.80
17421;DHT22;8828;48.800;9.540;2022-07-31T13:30:57;28.90;66.90
17421;DHT22;8828;48.800;9.540;2022-07-31T13:33:25;28.80;66.70
17421;DHT22;8828;48.800;9.540;2022-07-31T13:35:53;28.70;67.20
17421;DHT22;8828;48.800;9.540;2022-07-31T13:38:21;28.60;67.80
17421;DHT22;8828;48.800;9.540;2022-07-31T13:40:49;28.50;67.10
17421;DHT22;8828;48.800;9.540;2022-07-31T13:43:36;28.40;67.50
17421;DHT22;8828;48.800;9.540;2022-07-31T13:46:25;28.30;67.10
17421;DHT22;8828;48.800;9.540;2022-07-31T13:48:54;28.30;67.60
17421;DHT22;8828;48.800;9.540;2022-07-31T13:51:23;28.30;69.10
17421;DHT22;8828;48.800;9.540;2022-07-31T13:53:54;28.30;68.60
17421;DHT22;8828;48.800;9.540;2022-07-31T13:56:22;28.30;67.70
17421;DHT22;8828;48.800;9.540;2022-07-31T13:59:10;28.30;67.50
17421;DHT22;8828;48.800;9.540;2022-07-31T14:01:38;28.20;67.70
17421;DHT22;8828;48.800;9.540;2022-07-31T14:04:26;28.30;67.90
17421;DHT22;8828;48.800;9.540;2022-07-31T14:06:59;28.30;68.40
17421;DHT22;8828;48.800;9.540;2022-07-31T14:09:30;28.20;68.00
17421;DHT22;8828;48.800;9.540;2022-07-31T14:11:59;28.20;67.90
17421;DHT22;8828;48.800;9.540;2022-07-31T14:14:32;28.20;67.60
17421;DHT22;8828;48.800;9.540;2022-07-31T14:16:59;28.20;67.40
17421;DHT22;8828;48.800;9.540;2022-07-31T14:19:27;28.20;67.50
17421;DHT22;8828;48.800;9.540;2022-07-31T14:22:09;28.20;67.40
17421;DHT22;8828;48.800;9.540;2022-07-31T14:24:37;28.20;67.60
17421;DHT22;8828;48.800;9.540;2022-07-31T14:27:06;28.20;67.60
17421;DHT22;8828;48.800;9.540;2022-07-31T14:29:36;28.20;67.50
17421;DHT22;8828;48.800;9.540;2022-07-31T14:32:04;28.20;68.90
17421;DHT22;8828;48.800;9.540;2022-07-31T14:34:33;28.30;68.20
17421;DHT22;8828;48.800;9.540;2022-07-31T14:37:01;28.20;68.10
17421;DHT22;8828;48.800;9.540;2022-07-31T14:39:30;28.20;68.10
17421;DHT22;8828;48.800;9.540;2022-07-31T14:41:58;28.20;68.30
17421;DHT22;8828;48.800;9.540;2022-07-31T14:44:28;28.20;68.80
17421;DHT22;8828;48.800;9.540;2022-07-31T14:46:58;28.20;68.50
17421;DHT22;8828;48.800;9.540;2022-07-31T14:49:27;28.20;69.40
17421;DHT22;8828;48.800;9.540;2022-07-31T14:52:14;28.20;69.80
17421;DHT22;8828;48.800;9.540;2022-07-31T14:54:42;28.20;69.00
17421;DHT22;8828;48.800;9.540;2022-07-31T14:57:10;28.20;68.20
17421;DHT22;8828;48.800;9.540;2022-07-31T14:59:47;28.20;68.00
17421;DHT22;8828;48.800;9.540;2022-07-31T15:02:17;28.10;67.50
17421;DHT22;8828;48.800;9.540;2022-07-31T15:04:48;28.10;68.10
17421;DHT22;8828;48.800;9.540;2022-07-31T15:07:16;28.10;68.30
17421;DHT22;8828;48.800;9.540;2022-07-31T15:10:03;28.10;69.10
17421;DHT22;8828;48.800;9.540;2022-07-31T15:12:31;28.10;67.30
17421;DHT22;8828;48.800;9.540;2022-07-31T15:14:59;28.10;67.60
17421;DHT22;8828;48.800;9.540;2022-07-31T15:17:29;28.00;67.80
17421;DHT22;8828;48.800;9.540;2022-07-31T15:19:57;28.00;68.70
17421;DHT22;8828;48.800;9.540;2022-07-31T15:22:25;28.00;68.00
17421;DHT22;8828;48.800;9.540;2022-07-31T15:24:53;28.00;67.50
17421;DHT22;8828;48.800;9.540;2022-07-31T15:27:21;28.00;67.40
17421;DHT22;8828;48.800;9.540;2022-07-31T15:29:50;28.10;68.20
17421;DHT22;8828;48.800;9.540;2022-07-31T15:32:35;28.10;68.00
17421;DHT22;8828;48.800;9.540;2022-07-31T15:35:05;28.10;68.20
17421;DHT22;8828;48.800;9.540;2022-07-31T15:37:34;28.10;69.60
17421;DHT22;8828;48.800;9.540;2022-07-31T15:40:03;28.20;68.80
17421;DHT22;8828;48.800;9.540;2022-07-31T15:42:33;28.10;68.60
17421;DHT22;8828;48.800;9.540;2022-07-31T15:45:04;28.20;69.00
17421;DHT22;8828;48.800;9.540;2022-07-31T15:47:34;28.20;68.80
17421;DHT22;8828;48.800;9.540;2022-07-31T15:50:02;28.20;68.00
17421;DHT22;8828;48.800;9.540;2022-07-31T15:52:30;28.20;67.90
17421;DHT22;8828;48.800;9.540;2022-07-31T15:54:58;28.10;68.00
17421;DHT22;8828;48.800;9.540;2022-07-31T15:57:26;28.10;68.40
17421;DHT22;8828;48.800;9.540;2022-07-31T15:59:54;28.10;69.10
17421;DHT22;8828;48.800;9.540;2022-07-31T16:02:23;28.00;69.10
17421;DHT22;8828;48.800;9.540;2022-07-31T16:04:53;28.00;68.80
17421;DHT22;8828;48.800;9.540;2022-07-31T16:07:34;28.00;69.20